Time;durP1;ratioP1;P1;durP2;ratioP2;P2;SDS_P1;SDS_P2;PMS_P1;PMS_P2;Temp;Humidity;BMP_temperature;BMP_pressure;BME280_temperature;BME280_humidity;BME280_pressure;Samples;Min_cycle;Max_cycle;Signal;HPM_P1;HPM_P2
2024/01/13 00:01:28;;;;;;;19.42;11.35;;;;;;;2.87;92.44;102621.00;5051630;28;20045;-49
2024/01/13 00:03:55;;;;;;;20.92;11.32;;;;;;;2.87;92.48;102607.34;5029941;28;20067;-49
2024/01/13 00:06:23;;;;;;;24.63;13.07;;;;;;;2.91;92.28;102604.94;5053214;28;20049;-51
2024/01/13 00:08:50;;;;;;;21.67;11.80;;;;;;;2.96;92.20;102605.03;5055823;28;20829;-49
2024/01/13 00:11:18;;;;;;;18.40;11.25;;;;;;;2.97;92.55;102599.28;5013110;28;20048;-48
2024/01/13 00:13:45;;;;;;;19.77;12.18;;;;;;;2.96;91.91;102614.06;5034966;28;20048;-45
2024/01/13 00:16:13;;;;;;;19.65;12.02;;;;;;;2.91;92.31;102618.63;5047868;28;21069;-54
2024/01/13 00:18:40;;;;;;;21.05;12.95;;;;;;;2.88;92.30;102609.00;5056787;28;20033;-49
2024/01/13 00:21:08;;;;;;;20.00;11.85;;;;;;;2.84;92.20;102607.81;5052543;28;20056;-50
2024/01/13 00:23:37;;;;;;;23.23;12.77;;;;;;;2.89;92.19;102604.34;5047048;28;20049;-51
2024/01/13 00:26:05;;;;;;;25.63;13.40;;;;;;;2.89;92.29;102599.69;5046822;28;20053;-49
2024/01/13 00:28:32;;;;;;;26.48;12.98;;;;;;;2.91;92.13;102602.22;5044514;28;20080;-50
2024/01/13 00:31:06;;;;;;;21.40;12.43;;;;;;;2.90;91.92;102601.38;5043385;28;20048;-50
2024/01/13 00:33:36;;;;;;;23.73;13.55;;;;;;;2.91;92.33;102591.25;5049116;28;20052;-49
2024/01/13 00:36:04;;;;;;;26.15;14.02;;;;;;;2.85;91.86;102590.34;5055152;28;20045;-49
2024/01/13 00:38:32;;;;;;;27.63;13.70;;;;;;;2.84;92.30;102585.09;5054810;28;20118;-48
2024/01/13 00:41:06;;;;;;;22.67;13.02;;;;;;;2.85;91.95;102576.66;5053616;28;20064;-51
2024/01/13 00:43:36;;;;;;;23.60;13.45;;;;;;;2.77;92.17;102574.34;5049266;28;20793;-47
2024/01/13 00:46:04;;;;;;;23.02;12.55;;;;;;;2.75;92.07;102564.75;5065877;28;20415;-52
2024/01/13 00:48:34;;;;;;;23.75;11.88;;;;;;;2.72;91.90;102577.00;5034035;28;20045;-49
2024/01/13 00:51:12;;;;;;;25.58;14.07;;;;;;;2.70;92.02;102573.66;5041655;28;20044;-47
2024/01/13 00:53:42;;;;;;;21.50;12.50;;;;;;;2.69;92.23;102571.19;5028573;28;20045;-47
2024/01/13 00:56:10;;;;;;;28.38;14.20;;;;;;;2.70;92.07;102564.66;5047821;28;20049;-52
2024/01/13 00:58:38;;;;;;;24.73;12.98;;;;;;;2.68;91.87;102562.16;5047054;28;20087;-48
2024/01/13 01:01:13;;;;;;;29.00;14.23;;;;;;;2.69;92.29;102555.63;5047116;28;20059;-51
2024/01/13 01:03:44;;;;;;;25.65;13.60;;;;;;;2.67;92.21;102552.31;5046876;28;20037;-51
2024/01/13 01:06:11;;;;;;;24.60;12.85;;;;;;;2.65;91.93;102543.50;5046665;28;20534;-52
2024/01/13 01:08:40;;;;;;;23.27;13.80;;;;;;;2.59;91.86;102547.25;5046659;28;20056;-52
2024/01/13 01:11:09;;;;;;;22.75;12.68;;;;;;;2.59;92.15;102538.22;5046661;28;20045;-52
2024/01/13 01:13:38;;;;;;;23.05;13.35;;;;;;;2.59;92.40;102533.59;5046563;28;20061;-52
2024/01/13 01:16:06;;;;;;;25.40;12.82;;;;;;;2.59;92.51;102521.81;5047327;28;20041;-50
2024/01/13 01:18:34;;;;;;;20.63;11.70;;;;;;;2.58;91.95;102523.72;5045925;28;20065;-51
2024/01/13 01:21:15;;;;;;;24.83;13.50;;;;;;;2.58;91.94;102531.91;5046778;28;20041;-50
2024/01/13 01:23:46;;;;;;;25.80;13.40;;;;;;;2.59;92.42;102528.13;5046493;28;20064;-51
2024/01/13 01:26:15;;;;;;;22.77;13.05;;;;;;;2.59;92.27;102506.25;5046694;28;20593;-51
2024/01/13 01:28:42;;;;;;;24.08;13.07;;;;;;;2.57;92.32;102505.63;5033202;28;20048;-50
2024/01/13 01:31:09;;;;;;;21.48;12.70;;;;;;;2.55;92.34;102509.69;5046175;28;20510;-49
2024/01/13 01:33:37;;;;;;;24.05;13.25;;;;;;;2.54;92.38;102503.44;5046798;28;20064;-49
2024/01/13 01:36:07;;;;;;;22.90;13.13;;;;;;;2.59;92.53;102500.78;5046803;28;20052;-48
2024/01/13 01:38:36;;;;;;;22.83;12.15;;;;;;;2.58;92.29;102496.38;5046226;28;20060;-52
2024/01/13 01:41:13;;;;;;;31.67;14.05;;;;;;;2.57;92.66;102482.97;5046863;28;20049;-46
2024/01/13 01:43:43;;;;;;;28.67;15.23;;;;;;;2.57;92.40;102482.97;5046397;28;20049;-49
2024/01/13 01:46:17;;;;;;;32.95;15.48;;;;;;;2.50;92.55;102485.03;5046648;28;20048;-49
2024/01/13 01:48:46;;;;;;;33.47;15.90;;;;;;;2.43;92.48;102480.56;5039429;28;20049;-49
2024/01/13 01:51:15;;;;;;;35.20;17.75;;;;;;;2.45;92.69;102475.69;5045215;28;20061;-50
2024/01/13 01:53:44;;;;;;;37.20;17.08;;;;;;;2.46;92.81;102473.78;5050233;28;20053;-48
2024/01/13 01:56:16;;;;;;;29.58;16.38;;;;;;;2.45;93.17;102463.91;5036009;28;20053;-52
2024/01/13 01:58:47;;;;;;;28.15;14.85;;;;;;;2.38;93.14;102463.25;5049894;28;20052;-48
2024/01/13 02:01:16;;;;;;;29.45;14.50;;;;;;;2.35;93.01;102450.09;5049699;28;20614;-54
2024/01/13 02:03:46;;;;;;;28.42;17.35;;;;;;;2.38;92.95;102455.06;5049538;28;20056;-51
2024/01/13 02:06:14;;;;;;;26.70;14.68;;;;;;;2.39;93.19;102454.81;5049299;28;20536;-52
2024/01/13 02:08:42;;;;;;;26.20;15.05;;;;;;;2.37;93.34;102448.75;5049793;28;20499;-47
2024/01/13 02:11:10;;;;;;;26.75;15.35;;;;;;;2.38;93.45;102444.13;5049500;28;20049;-50
2024/01/13 02:13:41;;;;;;;27.63;14.82;;;;;;;2.37;93.42;102447.94;5049949;28;20060;-51
2024/01/13 02:16:10;;;;;;;29.83;15.43;;;;;;;2.35;93.42;102445.47;5017551;28;20467;-51
2024/01/13 02:18:39;;;;;;;27.73;13.82;;;;;;;2.35;93.68;102450.91;5049248;28;20533;-48
2024/01/13 02:21:10;;;;;;;26.20;13.40;;;;;;;2.37;93.81;102442.47;5049850;28;20072;-51
2024/01/13 02:23:40;;;;;;;27.38;14.05;;;;;;;2.33;93.58;102436.66;5049793;28;20792;-49
2024/01/13 02:26:08;;;;;;;28.90;16.08;;;;;;;2.34;94.22;102442.97;5049475;28;20072;-52
2024/01/13 02:28:36;;;;;;;26.25;14.65;;;;;;;2.34;94.27;102432.84;5046733;28;20057;-50
2024/01/13 02:31:17;;;;;;;34.88;14.68;;;;;;;2.32;94.04;102434.19;5039456;28;20052;-50
2024/01/13 02:33:52;;;;;;;25.95;13.40;;;;;;;2.34;94.42;102421.09;5043818;28;20060;-51
2024/01/13 02:36:22;;;;;;;25.70;13.45;;;;;;;2.32;94.53;102428.72;5042523;28;20407;-49
2024/01/13 02:38:51;;;;;;;31.08;14.32;;;;;;;2.31;94.03;102451.66;5041166;28;20045;-50
2024/01/13 02:41:19;;;;;;;32.38;13.70;;;;;;;2.28;94.05;102439.31;5048859;28;20126;-46
2024/01/13 02:43:47;;;;;;;27.45;14.45;;;;;;;2.27;94.47;102426.75;5049486;28;20045;-52
2024/01/13 02:46:14;;;;;;;28.17;13.48;;;;;;;2.28;94.74;102439.31;5048379;28;20052;-48
2024/01/13 02:48:47;;;;;;;27.30;14.68;;;;;;;2.28;94.62;102422.09;5031849;28;20499;-52
2024/01/13 02:51:16;;;;;;;26.85;14.38;;;;;;;2.25;94.63;102439.00;5048726;28;20406;-50
2024/01/13 02:53:46;;;;;;;29.70;14.50;;;;;;;2.22;94.53;102428.56;5049078;28;20060;-51
2024/01/13 02:56:14;;;;;;;23.92;12.68;;;;;;;2.23;94.68;102435.66;5048024;28;20037;-52
2024/01/13 02:58:42;;;;;;;23.55;13.00;;;;;;;2.22;94.91;102429.41;5048952;28;20067;-52
2024/01/13 03:01:14;;;;;;;23.63;12.73;;;;;;;2.23;94.83;102424.72;5034384;28;20041;-54
2024/01/13 03:03:45;;;;;;;25.65;12.40;;;;;;;2.23;95.26;102420.09;5048943;28;20052;-49
2024/01/13 03:06:13;;;;;;;25.10;12.70;;;;;;;2.22;94.96;102407.53;5048049;28;20044;-52
2024/01/13 03:08:41;;;;;;;25.35;13.68;;;;;;;2.23;95.10;102403.72;5049094;28;20048;-52
2024/01/13 03:11:11;;;;;;;25.15;12.48;;;;;;;2.28;95.28;102416.63;5030748;28;20733;-50
2024/01/13 03:13:38;;;;;;;22.52;11.93;;;;;;;2.28;95.45;102411.16;5048244;28;20048;-49
2024/01/13 03:16:09;;;;;;;22.27;12.00;;;;;;;2.25;95.38;102407.00;5044216;28;20057;-50
2024/01/13 03:18:36;;;;;;;24.52;13.25;;;;;;;2.27;95.01;102398.59;5042067;28;20053;-52
2024/01/13 03:21:10;;;;;;;25.25;12.25;;;;;;;2.24;95.52;102393.59;5040496;28;20057;-49
2024/01/13 03:23:40;;;;;;;25.15;12.90;;;;;;;2.24;95.23;102385.41;5044021;28;20048;-53
2024/01/13 03:26:08;;;;;;;25.50;12.77;;;;;;;2.21;95.25;102377.72;5048070;28;20079;-48
2024/01/13 03:28:35;;;;;;;26.80;13.00;;;;;;;2.20;95.48;102376.03;5048539;28;20057;-49
2024/01/13 03:31:13;;;;;;;22.88;11.80;;;;;;;2.16;95.44;102359.34;5048003;28;20083;-53
2024/01/13 03:33:45;;;;;;;22.00;12.65;;;;;;;2.13;95.51;102364.47;5048129;28;20053;-48
2024/01/13 03:36:14;;;;;;;20.85;11.63;;;;;;;2.15;95.63;102359.56;5048636;28;20059;-52
2024/01/13 03:38:42;;;;;;;26.33;13.27;;;;;;;2.15;95.41;102363.16;5042562;28;20534;-51
2024/01/13 03:41:13;;;;;;;23.35;12.15;;;;;;;2.13;95.60;102353.53;5040776;28;20525;-51
2024/01/13 03:43:41;;;;;;;24.88;12.50;;;;;;;2.14;95.57;102357.94;5030498;28;20048;-51
2024/01/13 03:46:08;;;;;;;23.23;12.60;;;;;;;2.16;95.79;102361.25;5047686;28;20588;-51
2024/01/13 03:48:36;;;;;;;22.80;12.30;;;;;;;2.20;96.15;102356.91;5048119;28;20067;-50
2024/01/13 03:51:05;;;;;;;21.02;12.18;;;;;;;2.19;95.92;102358.00;5047809;28;20361;-52
2024/01/13 03:53:33;;;;;;;24.70;12.63;;;;;;;2.19;95.76;102352.56;5047165;28;20052;-48
2024/01/13 03:56:05;;;;;;;24.60;12.55;;;;;;;2.20;95.92;102343.25;5047349;28;20041;-44
2024/01/13 03:58:34;;;;;;;16.20;8.25;;;;;;;2.19;96.02;102342.47;5047666;28;20060;-50
2024/01/13 04:01:03;;;;;;;20.45;11.95;;;;;;;2.24;95.88;102336.22;5034255;28;20052;-49
2024/01/13 04:03:31;;;;;;;23.10;10.80;;;;;;;2.21;95.81;102328.53;5038598;28;20045;-50
2024/01/13 04:06:02;;;;;;;21.27;11.00;;;;;;;2.17;95.91;102330.94;5043366;28;20045;-50
2024/01/13 04:08:30;;;;;;;21.75;12.52;;;;;;;2.12;96.02;102335.50;5047293;28;20045;-49
2024/01/13 04:10:57;;;;;;;22.00;12.18;;;;;;;2.09;95.91;102316.88;5047423;28;20064;-52
2024/01/13 04:13:28;;;;;;;22.73;11.75;;;;;;;2.06;96.32;102315.50;5029248;28;20402;-45
2024/01/13 04:15:56;;;;;;;25.83;11.45;;;;;;;2.04;95.82;102319.53;5031064;28;20045;-50
2024/01/13 04:18:23;;;;;;;22.98;11.52;;;;;;;2.02;96.10;102308.84;5039172;28;20072;-51
2024/01/13 04:20:51;;;;;;;20.70;10.88;;;;;;;2.02;96.21;102302.56;5033545;28;20047;-50
2024/01/13 04:23:33;;;;;;;22.08;12.30;;;;;;;1.99;96.25;102308.53;5046760;28;20045;-50
2024/01/13 04:26:01;;;;;;;24.13;12.25;;;;;;;1.98;96.13;102307.72;5047471;28;20044;-52
2024/01/13 04:28:28;;;;;;;29.33;13.57;;;;;;;1.98;96.49;102307.72;5047374;28;20059;-47
2024/01/13 04:30:56;;;;;;;21.30;11.75;;;;;;;1.98;96.39;102306.88;5039002;28;20046;-48
2024/01/13 04:33:23;;;;;;;22.52;12.70;;;;;;;1.98;96.38;102294.06;5042539;28;20053;-47
2024/01/13 04:35:50;;;;;;;20.40;11.45;;;;;;;1.99;96.34;102292.13;5047158;28;20063;-51
2024/01/13 04:38:18;;;;;;;22.92;11.82;;;;;;;1.98;96.60;102290.50;5046688;28;20063;-51
2024/01/13 04:40:47;;;;;;;25.05;11.63;;;;;;;1.97;96.42;102284.19;5046836;28;20045;-50
2024/01/13 04:43:14;;;;;;;24.20;13.35;;;;;;;1.95;96.58;102285.53;5046675;28;20147;-50
2024/01/13 04:45:42;;;;;;;25.02;12.75;;;;;;;1.91;96.66;102276.19;5047251;28;20049;-50
2024/01/13 04:48:14;;;;;;;19.63;10.93;;;;;;;1.92;96.96;102277.84;5045610;28;20410;-49
2024/01/13 04:50:41;;;;;;;21.85;12.52;;;;;;;1.90;96.86;102277.25;5046563;28;20414;-51
2024/01/13 04:53:09;;;;;;;28.48;13.05;;;;;;;1.91;96.60;102270.72;5046790;28;20053;-47
2024/01/13 04:55:36;;;;;;;24.10;12.38;;;;;;;1.90;96.64;102280.81;5037939;28;20045;-50
2024/01/13 04:58:03;;;;;;;21.88;12.77;;;;;;;1.90;96.98;102277.25;5046053;28;20511;-50
2024/01/13 05:00:33;;;;;;;25.85;13.35;;;;;;;1.95;97.24;102274.59;5046384;28;20061;-52
2024/01/13 05:03:01;;;;;;;23.77;12.05;;;;;;;1.95;97.28;102258.22;5041793;28;20049;-47
2024/01/13 05:05:28;;;;;;;23.40;12.77;;;;;;;1.96;96.96;102260.69;5039099;28;20045;-48
2024/01/13 05:07:56;;;;;;;22.75;12.25;;;;;;;1.96;96.87;102276.28;5045944;28;20053;-52
2024/01/13 05:10:23;;;;;;;23.20;12.35;;;;;;;1.96;97.13;102266.16;5047102;28;20462;-50
2024/01/13 05:12:51;;;;;;;22.30;12.35;;;;;;;1.97;97.23;102264.25;5045757;28;20490;-51
2024/01/13 05:15:18;;;;;;;24.17;13.02;;;;;;;1.98;97.39;102249.53;5046869;28;20060;-51
2024/01/13 05:17:46;;;;;;;25.30;13.32;;;;;;;1.99;97.57;102262.09;5045271;28;20059;-51
2024/01/13 05:20:13;;;;;;;22.67;12.40;;;;;;;1.96;97.54;102252.50;5046367;28;20064;-54
2024/01/13 05:22:40;;;;;;;23.45;13.32;;;;;;;1.97;97.44;102245.13;5046511;28;20123;-50
2024/01/13 05:25:14;;;;;;;25.30;12.90;;;;;;;2.00;97.87;102239.16;5048955;28;20052;-50
2024/01/13 05:27:41;;;;;;;24.00;12.48;;;;;;;2.02;97.78;102250.66;5050220;28;20049;-50
2024/01/13 05:30:09;;;;;;;20.75;11.30;;;;;;;2.00;97.43;102241.91;5035539;28;20057;-51
2024/01/13 05:32:39;;;;;;;22.80;11.90;;;;;;;1.99;97.76;102242.97;5046016;28;20055;-52
2024/01/13 05:35:08;;;;;;;28.60;12.85;;;;;;;2.03;97.67;102238.66;5046626;28;20052;-50
2024/01/13 05:37:36;;;;;;;22.40;11.75;;;;;;;2.02;97.66;102231.53;5049120;28;20041;-49
2024/01/13 05:40:05;;;;;;;24.45;11.25;;;;;;;1.99;97.64;102237.50;5039450;28;20045;-49
2024/01/13 05:42:33;;;;;;;23.17;11.88;;;;;;;1.98;97.78;102241.34;5050234;28;20053;-49
2024/01/13 05:45:00;;;;;;;26.10;13.10;;;;;;;1.98;97.94;102236.72;5049603;28;20152;-50
2024/01/13 05:47:28;;;;;;;24.52;13.43;;;;;;;2.00;98.10;102228.25;5039548;28;20037;-52
2024/01/13 05:49:55;;;;;;;22.77;12.23;;;;;;;1.99;98.23;102223.84;5049640;28;20053;-50
2024/01/13 05:52:23;;;;;;;22.95;13.02;;;;;;;2.00;98.16;102223.63;5049416;28;20051;-49
2024/01/13 05:54:50;;;;;;;21.63;11.13;;;;;;;2.02;98.11;102220.63;5050199;28;20063;-52
2024/01/13 05:57:17;;;;;;;21.80;11.77;;;;;;;2.04;98.13;102210.28;5049790;28;20060;-52
2024/01/13 05:59:45;;;;;;;23.40;13.05;;;;;;;2.05;98.31;102211.94;5048677;28;20384;-52
2024/01/13 06:02:13;;;;;;;23.90;12.07;;;;;;;2.05;98.41;102201.00;5049722;28;20041;-49
2024/01/13 06:04:40;;;;;;;22.85;12.95;;;;;;;2.05;98.16;102190.91;5048953;28;20049;-49
2024/01/13 06:07:08;;;;;;;27.15;11.48;;;;;;;2.08;98.27;102186.84;5048036;28;20530;-49
2024/01/13 06:09:38;;;;;;;20.50;11.18;;;;;;;2.09;98.27;102183.03;5049047;28;20450;-50
2024/01/13 06:12:07;;;;;;;25.52;12.65;;;;;;;2.07;98.59;102177.81;5048585;28;20033;-52
2024/01/13 06:14:34;;;;;;;24.30;11.38;;;;;;;2.08;98.38;102176.75;5047460;28;20052;-50
2024/01/13 06:17:02;;;;;;;24.10;13.52;;;;;;;2.10;98.30;102184.66;5048241;28;20048;-52
2024/01/13 06:19:30;;;;;;;22.60;12.20;;;;;;;2.08;98.36;102175.91;5037215;28;20041;-50
2024/01/13 06:21:58;;;;;;;25.98;13.45;;;;;;;2.07;98.51;102160.59;5048607;28;20503;-49
2024/01/13 06:24:25;;;;;;;19.08;10.82;;;;;;;2.06;98.45;102167.97;5042093;28;20046;-48
2024/01/13 06:26:52;;;;;;;25.20;12.70;;;;;;;2.06;98.83;102164.41;5048343;28;20064;-50
2024/01/13 06:29:20;;;;;;;22.63;12.50;;;;;;;2.08;98.99;102156.78;5049814;28;20059;-50
2024/01/13 06:31:47;;;;;;;23.33;13.65;;;;;;;2.07;98.97;102157.84;5049178;28;20059;-51
2024/01/13 06:34:15;;;;;;;24.83;11.57;;;;;;;2.07;98.95;102149.66;5049721;28;20503;-50
2024/01/13 06:36:42;;;;;;;23.23;11.65;;;;;;;2.04;98.80;102159.19;5047913;28;20060;-47
2024/01/13 06:39:11;;;;;;;27.48;13.60;;;;;;;2.02;98.84;102144.13;5048252;28;20052;-50
2024/01/13 06:41:38;;;;;;;24.50;13.18;;;;;;;2.03;99.13;102143.91;5030354;28;20063;-51
2024/01/13 06:44:06;;;;;;;26.00;13.38;;;;;;;2.04;98.96;102142.00;5048861;28;20044;-47
2024/01/13 06:46:33;;;;;;;21.55;11.82;;;;;;;2.01;99.19;102135.16;5048427;28;20044;-50
2024/01/13 06:49:00;;;;;;;24.95;13.02;;;;;;;2.02;99.02;102155.91;5049752;28;20063;-50
2024/01/13 06:51:28;;;;;;;25.58;12.90;;;;;;;2.03;98.98;102143.06;5030417;28;20037;-52
2024/01/13 06:53:56;;;;;;;24.65;12.40;;;;;;;2.03;99.26;102152.09;5049703;28;20037;-52
2024/01/13 06:56:23;;;;;;;27.70;13.68;;;;;;;2.04;99.33;102144.72;5038748;28;20045;-50
2024/01/13 06:58:50;;;;;;;24.13;13.13;;;;;;;2.04;99.19;102144.72;5043586;28;20061;-51
2024/01/13 07:01:17;;;;;;;27.63;14.38;;;;;;;2.02;99.10;102135.94;5046471;28;20045;-47
2024/01/13 07:03:46;;;;;;;27.67;14.88;;;;;;;2.02;99.62;102127.75;5048140;28;20510;-48
2024/01/13 07:06:13;;;;;;;27.95;13.07;;;;;;;2.01;99.28;102121.50;5048331;28;20060;-53
2024/01/13 07:08:44;;;;;;;28.70;14.52;;;;;;;2.01;99.46;102126.94;5049594;28;20831;-47
2024/01/13 07:11:14;;;;;;;24.92;13.55;;;;;;;2.02;99.49;102119.56;5047454;28;20052;-48
2024/01/13 07:13:42;;;;;;;23.50;13.55;;;;;;;2.02;99.42;102127.75;5015725;28;20053;-52
2024/01/13 07:16:11;;;;;;;30.83;14.85;;;;;;;2.03;99.56;102123.94;5043216;28;20045;-49
2024/01/13 07:18:38;;;;;;;31.48;12.88;;;;;;;2.01;99.78;102126.13;5047563;28;20384;-52
2024/01/13 07:21:06;;;;;;;23.70;12.90;;;;;;;2.01;99.55;102109.72;5039185;28;20042;-50
2024/01/13 07:23:34;;;;;;;21.90;12.43;;;;;;;2.02;99.67;102114.09;5047217;28;20056;-47
2024/01/13 07:26:01;;;;;;;29.45;14.18;;;;;;;2.03;99.98;102118.50;5028547;28;20399;-50
2024/01/13 07:28:29;;;;;;;24.08;13.98;;;;;;;2.04;99.92;102120.16;5045648;28;20502;-47
2024/01/13 07:30:58;;;;;;;27.17;13.75;;;;;;;2.04;99.87;102112.75;5032552;28;20469;-51
2024/01/13 07:33:25;;;;;;;27.88;14.18;;;;;;;2.06;99.72;102112.53;5042917;28;20053;-51
2024/01/13 07:35:53;;;;;;;29.25;13.23;;;;;;;2.06;100.00;102113.34;5047089;28;20056;-49
2024/01/13 07:38:21;;;;;;;24.98;12.85;;;;;;;2.07;100.00;102108.69;5047619;28;20383;-49
2024/01/13 07:40:49;;;;;;;28.25;14.23;;;;;;;2.06;100.00;102096.13;5047978;28;20052;-45
2024/01/13 07:43:16;;;;;;;27.55;14.23;;;;;;;2.07;100.00;102097.75;5046213;28;20052;-52
2024/01/13 07:45:43;;;;;;;29.98;13.77;;;;;;;2.07;100.00;102103.22;5038062;28;20396;-48
2024/01/13 07:48:11;;;;;;;27.92;15.65;;;;;;;2.07;100.00;102100.50;5047199;28;20049;-52
2024/01/13 07:50:38;;;;;;;32.10;15.25;;;;;;;2.08;100.00;102105.72;5047106;28;20060;-49
2024/01/13 07:53:05;;;;;;;29.60;15.02;;;;;;;2.08;100.00;102100.25;5044890;28;20394;-48
2024/01/13 07:55:33;;;;;;;27.15;13.38;;;;;;;2.11;100.00;102090.72;5047587;28;20045;-50
2024/01/13 07:58:00;;;;;;;29.33;14.63;;;;;;;2.13;100.00;102088.56;5047397;28;20053;-47
2024/01/13 08:00:28;;;;;;;28.90;14.95;;;;;;;2.16;100.00;102085.31;5046713;28;20738;-51
2024/01/13 08:02:55;;;;;;;27.85;13.75;;;;;;;2.17;100.00;102089.72;5047227;28;20053;-47
2024/01/13 08:05:22;;;;;;;27.92;14.55;;;;;;;2.19;100.00;102084.81;5047015;28;20053;-48
2024/01/13 08:07:50;;;;;;;30.52;15.35;;;;;;;2.19;100.00;102080.16;5047444;28;20041;-51
2024/01/13 08:10:17;;;;;;;26.67;13.40;;;;;;;2.20;100.00;102075.50;5046808;28;20714;-49
2024/01/13 08:12:46;;;;;;;28.48;13.18;;;;;;;2.19;100.00;102080.16;5046681;28;20049;-48
2024/01/13 08:15:14;;;;;;;34.60;14.80;;;;;;;2.18;100.00;102072.22;5047016;28;20068;-52
2024/01/13 08:17:41;;;;;;;29.02;14.77;;;;;;;2.17;100.00;102065.91;5041631;28;20060;-45
2024/01/13 08:20:09;;;;;;;27.70;14.55;;;;;;;2.15;100.00;102064.53;5045881;28;20049;-49
2024/01/13 08:22:37;;;;;;;29.90;14.35;;;;;;;2.16;100.00;102068.91;5046498;28;20055;-49
2024/01/13 08:25:06;;;;;;;41.22;13.68;;;;;;;2.16;100.00;102063.47;5046530;28;20037;-49
2024/01/13 08:27:34;;;;;;;34.10;14.82;;;;;;;2.14;100.00;102066.47;5046117;28;20411;-51
2024/01/13 08:30:01;;;;;;;37.08;14.93;;;;;;;2.16;100.00;102063.47;5046582;28;20053;-48
2024/01/13 08:32:29;;;;;;;27.35;14.52;;;;;;;2.16;100.00;102060.72;5045937;28;20045;-45
2024/01/13 08:34:57;;;;;;;28.63;14.63;;;;;;;2.16;100.00;102047.91;5046936;28;20064;-50
2024/01/13 08:37:25;;;;;;;31.35;16.05;;;;;;;2.17;100.00;102048.72;5029033;28;20376;-47
2024/01/13 08:39:52;;;;;;;30.00;14.68;;;;;;;2.15;100.00;102050.88;5038532;28;20049;-51
2024/01/13 08:42:22;;;;;;;30.13;13.80;;;;;;;2.18;100.00;102055.81;5026542;28;20051;-46
2024/01/13 08:44:49;;;;;;;32.38;16.02;;;;;;;2.20;100.00;102059.13;5046979;28;20049;-52
2024/01/13 08:47:17;;;;;;;30.67;16.13;;;;;;;2.21;100.00;102049.84;5045505;28;20049;-47
2024/01/13 08:49:44;;;;;;;28.48;13.75;;;;;;;2.21;100.00;102047.13;5046390;28;20055;-49
2024/01/13 08:52:13;;;;;;;26.73;13.68;;;;;;;2.22;100.00;102049.59;5041654;28;20041;-49
2024/01/13 08:54:40;;;;;;;25.90;12.25;;;;;;;2.23;100.00;102050.41;5046873;28;20052;-52
2024/01/13 08:57:07;;;;;;;32.35;15.82;;;;;;;2.24;100.00;102060.25;5046856;28;20045;-48
2024/01/13 08:59:37;;;;;;;28.08;13.75;;;;;;;2.24;100.00;102052.06;5047955;28;20060;-51
2024/01/13 09:02:06;;;;;;;27.02;12.98;;;;;;;2.25;100.00;102051.00;5051178;28;20835;-50
2024/01/13 09:04:34;;;;;;;30.40;15.45;;;;;;;2.28;100.00;102045.00;5037678;28;20048;-46
2024/01/13 09:07:01;;;;;;;28.10;13.75;;;;;;;2.30;100.00;102060.03;5049713;28;20049;-46
2024/01/13 09:09:29;;;;;;;32.67;14.95;;;;;;;2.30;100.00;102059.25;5048438;28;20064;-52
2024/01/13 09:11:57;;;;;;;32.00;14.90;;;;;;;2.32;100.00;102057.91;5049987;28;20048;-50
2024/01/13 09:14:24;;;;;;;29.25;14.27;;;;;;;2.36;100.00;102064.47;5049271;28;20055;-50
2024/01/13 09:16:52;;;;;;;26.95;13.55;;;;;;;2.38;100.00;102047.84;5045188;28;20041;-50
2024/01/13 09:19:19;;;;;;;28.85;14.18;;;;;;;2.41;100.00;102047.31;5045678;28;20078;-49
2024/01/13 09:21:47;;;;;;;26.63;13.77;;;;;;;2.44;100.00;102047.63;5048401;28;20057;-48
2024/01/13 09:24:17;;;;;;;31.38;15.30;;;;;;;2.47;100.00;102051.75;5045561;28;20041;-50
2024/01/13 09:26:45;;;;;;;28.02;15.35;;;;;;;2.48;100.00;102045.19;5050290;28;20045;-46
2024/01/13 09:29:17;;;;;;;35.50;15.13;;;;;;;2.50;100.00;102047.66;5049879;28;20071;-47
2024/01/13 09:31:50;;;;;;;32.70;15.65;;;;;;;2.47;100.00;102038.91;5049264;28;20048;-47
2024/01/13 09:34:20;;;;;;;32.70;15.67;;;;;;;2.46;100.00;102047.38;5049811;28;20087;-51
2024/01/13 09:36:48;;;;;;;29.83;14.98;;;;;;;2.46;100.00;102047.38;5050229;28;20048;-49
2024/01/13 09:39:20;;;;;;;30.00;15.18;;;;;;;2.47;100.00;102041.63;5050235;28;20056;-50
2024/01/13 09:41:52;;;;;;;27.80;14.63;;;;;;;2.47;100.00;102040.81;5049755;28;20052;-48
2024/01/13 09:44:22;;;;;;;34.28;15.50;;;;;;;2.43;100.00;102047.88;5048596;28;20144;-48
2024/01/13 09:46:52;;;;;;;29.50;15.18;;;;;;;2.39;100.00;102054.94;5036757;28;20061;-52
2024/01/13 09:49:24;;;;;;;31.95;16.27;;;;;;;2.37;100.00;102054.38;5044142;28;20057;-50
2024/01/13 09:51:52;;;;;;;28.63;14.90;;;;;;;2.39;100.00;102046.75;5048473;28;20658;-48
2024/01/13 09:54:30;;;;;;;34.65;15.90;;;;;;;2.42;100.00;102043.50;5048093;28;20040;-51
2024/01/13 09:56:59;;;;;;;30.40;15.43;;;;;;;2.44;100.00;102041.31;5049119;28;20041;-49
2024/01/13 09:59:28;;;;;;;30.45;14.60;;;;;;;2.49;100.00;102046.84;5048829;28;20037;-47
2024/01/13 10:02:00;;;;;;;27.95;15.60;;;;;;;2.55;100.00;102040.34;5048528;28;20059;-48
2024/01/13 10:04:30;;;;;;;30.40;15.52;;;;;;;2.59;100.00;102040.66;5049304;28;20509;-51
2024/01/13 10:06:58;;;;;;;29.33;15.35;;;;;;;2.64;100.00;102033.31;5049057;28;20140;-50
2024/01/13 10:09:26;;;;;;;31.90;16.10;;;;;;;2.67;100.00;102035.53;5045676;28;20057;-49
2024/01/13 10:12:05;;;;;;;33.55;15.38;;;;;;;2.73;100.00;102041.84;5036943;28;20060;-50
2024/01/13 10:14:38;;;;;;;;;;;;;;;2.76;100.00;102024.91;5036674;28;20434;-50
2024/01/13 10:17:07;;;;;;;29.95;15.77;;;;;;;2.82;100.00;102027.44;5038380;28;20280;-48
2024/01/13 10:19:41;;;;;;;29.17;15.70;;;;;;;2.90;100.00;102032.41;5030767;28;20041;-51
2024/01/13 10:22:11;;;;;;;29.10;14.52;;;;;;;2.98;100.00;102037.41;5038404;28;20064;-51
2024/01/13 10:24:38;;;;;;;27.27;13.68;;;;;;;3.03;100.00;102031.97;5049180;28;20063;-50
2024/01/13 10:27:08;;;;;;;30.05;15.07;;;;;;;3.08;100.00;102022.94;5032614;28;20713;-46
2024/01/13 10:29:42;;;;;;;27.90;15.13;;;;;;;3.12;100.00;102028.72;5018381;28;20049;-48
2024/01/13 10:32:12;;;;;;;32.17;15.43;;;;;;;3.20;100.00;102028.22;5033572;28;20723;-48
2024/01/13 10:34:47;;;;;;;32.65;15.73;;;;;;;3.27;100.00;102020.59;5047505;28;20053;-48
2024/01/13 10:37:15;;;;;;;29.80;15.77;;;;;;;3.31;100.00;102021.72;5040324;28;20052;-52
2024/01/13 10:39:43;;;;;;;29.17;15.80;;;;;;;3.32;100.00;102017.88;5048129;28;20041;-50
2024/01/13 10:42:10;;;;;;;29.58;14.82;;;;;;;3.34;100.00;102026.66;5049112;28;20491;-51
2024/01/13 10:44:45;;;;;;;29.27;15.45;;;;;;;3.33;100.00;102022.28;5047111;28;20061;-50
2024/01/13 10:47:14;;;;;;;26.35;13.77;;;;;;;3.34;100.00;102021.19;5046815;28;20044;-49
2024/01/13 10:49:43;;;;;;;28.02;14.95;;;;;;;3.35;100.00;102017.34;5045476;28;20380;-53
2024/01/13 10:52:13;;;;;;;29.88;15.73;;;;;;;3.40;100.00;102025.59;5043190;28;20416;-50
2024/01/13 10:54:41;;;;;;;28.60;14.40;;;;;;;3.44;100.00;102027.53;5034528;28;20550;-52
2024/01/13 10:57:14;;;;;;;28.38;14.93;;;;;;;3.48;100.00;102033.28;5048180;28;20059;-45
2024/01/13 10:59:43;;;;;;;26.02;14.30;;;;;;;3.50;100.00;102026.47;5047598;28;20447;-50
2024/01/13 11:02:14;;;;;;;29.58;15.02;;;;;;;3.53;100.00;102020.47;5042917;28;20063;-49
2024/01/13 11:04:42;;;;;;;27.95;15.68;;;;;;;3.58;100.00;102019.66;5047873;28;20049;-46
2024/01/13 11:07:10;;;;;;;29.73;15.85;;;;;;;3.64;100.00;102021.31;5024065;28;20046;-52
2024/01/13 11:09:39;;;;;;;28.85;15.02;;;;;;;3.65;100.00;102021.03;5039597;28;20059;-50
2024/01/13 11:12:38;;;;;;;32.92;17.00;;;;;;;3.68;100.00;102020.50;5048205;28;20053;-52
2024/01/13 11:15:15;;;;;;;35.17;15.88;;;;;;;3.69;100.00;102004.91;5024835;28;20067;-48
2024/01/13 11:17:46;;;;;;;28.27;14.57;;;;;;;3.67;100.00;102004.38;5045724;28;20399;-49
2024/01/13 11:20:20;;;;;;;31.40;14.98;;;;;;;3.63;100.00;102000.50;5042065;28;20045;-48
2024/01/13 11:22:58;;;;;;;37.50;15.88;;;;;;;3.59;100.00;102007.63;5046943;28;20589;-46